Time,TemperatureF,DewpointF,PressureIn,WindDirection,WindDirectionDegrees,WindSpeedMPH,WindSpeedGustMPH,Humidity,HourlyPrecipIn,Conditions,Clouds,dailyrainin,SoftwareType,DateUTC
2013-01-01 00:00:00,35.7,28.6,29.09,NW,315,0.0,1.0,75,0.00,,SKC,0.00,WeatherDisplay:10.37,2013-01-01 05:00:00,
2013-01-01 00:01:00,35.8,28.6,29.10,NW,315,1.1,0.0,75,0.00,,SKC,0.00,WeatherDisplay:10.37,2013-01-01 05:01:00,
2013-01-01 00:06:00,36.0,28.8,29.09,North,0,0.0,0.0,75,0.00,,SKC,0.00,WeatherDisplay:10.37,2013-01-01 05:06:00,
2013-01-01 00:11:00,36.1,29.3,29.08,NW,315,1.1,0.0,76,0.00,,SKC,0.00,WeatherDisplay:10.37,2013-01-01 05:11:00,
2013-01-01 00:16:00,36.1,29.3,29.08,NW,315,0.0,0.0,76,0.00,,SKC,0.00,WeatherDisplay:10.37,2013-01-01 05:16:00,
2013-01-01 00:21:00,36.1,29.3,29.08,NW,315,1.1,0.0,76,0.00,,SKC,0.00,WeatherDisplay:10.37,2013-01-01 05:21:00,
2013-01-01 00:26:00,36.3,29.5,29.08,West,270,1.1,0.0,76,0.00,,SKC,0.00,WeatherDisplay:10.37,2013-01-01 05:26:00,
2013-01-01 00:31:00,36.1,29.0,29.07,SE,135,1.1,0.0,75,0.00,,SKC,0.00,WeatherDisplay:10.37,2013-01-01 05:31:00,
2013-01-01 00:36:00,36.1,29.0,29.07,West,270,0.0,0.0,75,0.00,,SKC,0.00,WeatherDisplay:10.37,2013-01-01 05:36:00,
2013-01-01 00:41:00,36.1,29.0,29.07,North,0,0.0,0.0,75,0.00,,SKC,0.00,WeatherDisplay:10.37,2013-01-01 05:41:00,
2013-01-01 00:47:00,36.3,29.2,29.06,North,0,0.0,0.0,75,0.00,,SKC,0.00,WeatherDisplay:10.37,2013-01-01 05:47:00,
2013-01-01 00:52:00,36.1,29.0,29.06,NW,315,0.0,0.0,75,0.00,,SKC,0.00,WeatherDisplay:10.37,2013-01-01 05:52:00,
2013-01-01 00:57:00,36.1,29.0,29.06,North,0,0.0,0.0,75,0.00,,SKC,0.00,WeatherDisplay:10.37,2013-01-01 05:57:00,
2013-01-01 01:02:00,36.3,29.2,29.06,North,0,0.0,0.0,75,0.00,,SKC,0.00,WeatherDisplay:10.37,2013-01-01 06:02:00,
2013-01-01 01:07:00,36.3,29.2,29.05,North,0,0.0,0.0,75,0.00,,SKC,0.00,WeatherDisplay:10.37,2013-01-01 06:07:00,
2013-01-01 01:12:00,36.1,29.0,29.04,South,180,1.1,0.0,75,0.00,,SKC,0.00,WeatherDisplay:10.37,2013-01-01 06:12:00,
2013-01-01 01:17:00,36.3,29.5,29.03,North,0,1.1,0.0,76,0.00,,SKC,0.00,WeatherDisplay:10.37,2013-01-01 06:17:00,
2013-01-01 01:22:00,36.3,29.5,29.05,North,0,1.1,0.0,76,0.00,,SKC,0.00,WeatherDisplay:10.37,2013-01-01 06:22:00,
2013-01-01 01:27:00,36.3,29.5,29.05,SW,225,0.0,0.0,76,0.00,,SKC,0.00,WeatherDisplay:10.37,2013-01-01 06:27:00,
2013-01-01 01:32:00,36.5,29.7,29.05,NE,45,1.1,0.0,76,0.00,,SKC,0.00,WeatherDisplay:10.37,2013-01-01 06:32:00,
2013-01-01 01:37:00,36.5,29.7,29.03,North,0,0.0,0.0,76,0.00,,SKC,0.00,WeatherDisplay:10.37,2013-01-01 06:37:00,
2013-01-01 01:42:00,36.7,29.8,29.03,NW,315,0.0,0.0,76,0.00,,SKC,0.00,WeatherDisplay:10.37,2013-01-01 06:42:00,
2013-01-01 01:47:00,36.7,29.8,29.03,NW,315,0.0,0.0,76,0.00,,SKC,0.00,WeatherDisplay:10.37,2013-01-01 06:47:00,
2013-01-01 01:52:00,36.7,29.8,29.04,North,0,1.1,0.0,76,0.00,,SKC,0.00,WeatherDisplay:10.37,2013-01-01 06:52:00,
2013-01-01 01:57:00,36.7,29.8,29.04,North,0,1.1,0.0,76,0.00,,SKC,0.00,WeatherDisplay:10.37,2013-01-01 06:57:00,
2013-01-01 02:02:00,36.9,31.6,29.05,NW,315,1.1,0.0,81,0.00,,SKC,0.00,WeatherDisplay:10.37,2013-01-01 07:02:00,
2013-01-01 02:07:00,37.0,31.8,29.05,South,180,1.1,0.0,81,0.00,,SKC,0.00,WeatherDisplay:10.37,2013-01-01 07:07:00,
2013-01-01 02:12:00,37.0,31.8,29.05,NW,315,0.0,0.0,81,0.00,,SKC,0.00,WeatherDisplay:10.37,2013-01-01 07:12:00,
2013-01-01 02:17:00,36.9,31.6,29.02,NW,315,1.1,0.0,81,0.00,,SKC,0.00,WeatherDisplay:10.37,2013-01-01 07:17:00,
2013-01-01 02:22:00,36.9,31.6,29.06,NW,315,0.0,0.0,81,0.00,,SKC,0.00,WeatherDisplay:10.37,2013-01-01 07:22:00,
2013-01-01 02:27:00,37.0,31.8,29.05,North,0,0.0,0.0,81,0.00,,SKC,0.00,WeatherDisplay:10.37,2013-01-01 07:27:00,
2013-01-01 02:32:00,37.2,32.2,29.03,North,0,1.1,0.0,82,0.00,,SKC,0.00,WeatherDisplay:10.37,2013-01-01 07:32:00,
2013-01-01 02:37:00,37.2,31.9,29.04,West,270,0.0,0.0,81,0.00,,SKC,0.00,WeatherDisplay:10.37,2013-01-01 07:37:00,
2013-01-01 02:42:00,37.4,32.1,29.05,South,180,0.0,0.0,81,0.00,,SKC,0.00,WeatherDisplay:10.37,2013-01-01 07:42:00,
2013-01-01 02:47:00,37.4,32.1,29.05,West,270,0.0,0.0,81,0.00,,SKC,0.00,WeatherDisplay:10.37,2013-01-01 07:47:00,
2013-01-01 02:52:00,37.4,32.1,29.04,North,0,1.1,0.0,81,0.00,,SKC,0.00,WeatherDisplay:10.37,2013-01-01 07:52:00,
2013-01-01 02:57:00,37.4,32.1,29.03,North,0,0.0,0.0,81,0.00,,SKC,0.00,WeatherDisplay:10.37,2013-01-01 07:57:00,
2013-01-01 03:02:00,37.4,32.1,29.03,NW,315,0.0,0.0,81,0.00,,SKC,0.00,WeatherDisplay:10.37,2013-01-01 08:02:00,
2013-01-01 03:07:00,37.4,32.1,29.04,NW,315,0.0,0.0,81,0.00,,SKC,0.00,WeatherDisplay:10.37,2013-01-01 08:07:00,
2013-01-01 03:12:00,37.6,32.0,29.04,North,0,0.0,0.0,80,0.00,,SKC,0.00,WeatherDisplay:10.37,2013-01-01 08:12:00,
2013-01-01 03:17:00,37.6,32.0,29.03,SW,225,0.0,0.0,80,0.00,,SKC,0.00,WeatherDisplay:10.37,2013-01-01 08:17:00,
2013-01-01 03:22:00,37.8,32.1,29.03,NW,315,0.0,0.0,80,0.00,,SKC,0.00,WeatherDisplay:10.37,2013-01-01 08:22:00,
2013-01-01 03:27:00,37.8,31.8,29.03,North,0,0.0,0.0,79,0.00,,SKC,0.00,WeatherDisplay:10.37,2013-01-01 08:27:00,
2013-01-01 03:32:00,37.8,32.1,29.02,SW,225,0.0,0.0,80,0.00,,SKC,0.00,WeatherDisplay:10.37,2013-01-01 08:32:00,
2013-01-01 03:37:00,37.6,32.0,29.02,NW,315,0.0,0.0,80,0.00,,SKC,0.00,WeatherDisplay:10.37,2013-01-01 08:37:00,
2013-01-01 03:42:00,37.6,32.0,29.02,South,180,0.0,0.0,80,0.00,,SKC,0.00,WeatherDisplay:10.37,2013-01-01 08:42:00,
2013-01-01 03:47:00,37.6,32.0,29.02,NE,45,0.0,0.0,80,0.00,,SKC,0.00,WeatherDisplay:10.37,2013-01-01 08:47:00,
2013-01-01 03:52:00,37.8,32.1,29.01,West,270,1.1,0.0,80,0.00,,SKC,0.00,WeatherDisplay:10.37,2013-01-01 08:52:00,
2013-01-01 03:57:00,37.6,32.0,29.02,NW,315,1.1,0.0,80,0.00,,SKC,0.00,WeatherDisplay:10.37,2013-01-01 08:57:00,
2013-01-01 04:02:00,37.8,32.1,29.02,North,0,0.0,0.0,80,0.00,,SKC,0.00,WeatherDisplay:10.37,2013-01-01 09:02:00,
2013-01-01 04:07:00,37.9,32.6,29.02,West,270,1.1,0.0,81,0.00,,SKC,0.00,WeatherDisplay:10.37,2013-01-01 09:07:00,
2013-01-01 04:12:00,37.9,32.3,29.01,North,0,1.1,0.0,80,0.00,,SKC,0.00,WeatherDisplay:10.37,2013-01-01 09:12:00,
2013-01-01 04:17:00,37.9,32.3,29.02,North,0,0.0,0.0,80,0.00,,SKC,0.00,WeatherDisplay:10.37,2013-01-01 09:17:00,
2013-01-01 04:22:00,37.9,32.6,29.03,South,180,1.1,0.0,81,0.00,,SKC,0.00,WeatherDisplay:10.37,2013-01-01 09:22:00,
2013-01-01 04:27:00,37.9,32.6,29.03,NW,315,1.1,0.0,81,0.00,,SKC,0.00,WeatherDisplay:10.37,2013-01-01 09:27:00,
2013-01-01 04:32:00,37.8,32.5,29.02,NW,315,0.0,0.0,81,0.00,,SKC,0.00,WeatherDisplay:10.37,2013-01-01 09:32:00,
2013-01-01 04:37:00,37.8,32.5,29.03,NW,315,1.1,0.0,81,0.00,,SKC,0.00,WeatherDisplay:10.37,2013-01-01 09:37:00,
2013-01-01 04:42:00,37.8,32.8,29.02,South,180,0.0,0.0,82,0.00,,SKC,0.00,WeatherDisplay:10.37,2013-01-01 09:42:00,
2013-01-01 04:47:00,37.8,32.8,29.02,NW,315,1.1,0.0,82,0.00,,SKC,0.00,WeatherDisplay:10.37,2013-01-01 09:47:00,
2013-01-01 04:52:00,37.8,32.8,29.02,SE,135,1.1,0.0,82,0.00,,SKC,0.00,WeatherDisplay:10.37,2013-01-01 09:52:00,
2013-01-01 04:57:00,37.8,32.8,29.02,SE,135,0.0,0.0,82,0.00,,SKC,0.00,WeatherDisplay:10.37,2013-01-01 09:57:00,
2013-01-01 05:02:00,37.8,32.8,29.02,NE,45,0.0,0.0,82,0.00,,SKC,0.00,WeatherDisplay:10.37,2013-01-01 10:02:00,
2013-01-01 05:07:00,37.8,32.8,29.02,NE,45,0.0,0.0,82,0.00,,SKC,0.00,WeatherDisplay:10.37,2013-01-01 10:07:00,
2013-01-01 05:12:00,37.8,32.5,29.02,North,0,1.1,0.0,81,0.00,,SKC,0.00,WeatherDisplay:10.37,2013-01-01 10:12:00,
2013-01-01 05:17:00,38.1,32.5,29.02,North,0,0.0,0.0,80,0.00,,SKC,0.00,WeatherDisplay:10.37,2013-01-01 10:17:00,
2013-01-01 05:22:00,38.1,32.5,29.02,NW,315,0.0,0.0,80,0.00,,SKC,0.00,WeatherDisplay:10.37,2013-01-01 10:22:00,
2013-01-01 05:27:00,38.3,32.7,29.02,North,0,0.0,0.0,80,0.00,,SKC,0.00,WeatherDisplay:10.37,2013-01-01 10:27:00,
2013-01-01 05:32:00,38.5,32.8,29.03,North,0,0.0,0.0,80,0.00,,SKC,0.00,WeatherDisplay:10.37,2013-01-01 10:32:00,
2013-01-01 05:37:00,38.5,32.8,29.03,North,0,0.0,0.0,80,0.00,,SKC,0.00,WeatherDisplay:10.37,2013-01-01 10:37:00,
2013-01-01 05:42:00,38.5,32.8,29.02,South,180,0.0,0.0,80,0.00,,SKC,0.00,WeatherDisplay:10.37,2013-01-01 10:42:00,
2013-01-01 05:47:00,38.5,33.2,29.02,NW,315,0.0,0.0,81,0.00,,SKC,0.00,WeatherDisplay:10.37,2013-01-01 10:47:00,
2013-01-01 05:52:00,38.5,32.8,29.02,North,0,0.0,0.0,80,0.00,,SKC,0.00,WeatherDisplay:10.37,2013-01-01 10:52:00,
2013-01-01 05:57:00,38.3,32.7,29.02,SW,225,0.0,0.0,80,0.00,,SKC,0.00,WeatherDisplay:10.37,2013-01-01 10:57:00,
2013-01-01 06:02:00,38.1,32.5,29.04,NW,315,1.1,0.0,80,0.00,,SKC,0.00,WeatherDisplay:10.37,2013-01-01 11:02:00,
2013-01-01 06:07:00,38.3,33.0,29.04,North,0,0.0,0.0,81,0.00,,SKC,0.00,WeatherDisplay:10.37,2013-01-01 11:07:00,
2013-01-01 06:12:00,38.3,33.3,29.04,NW,315,1.1,0.0,82,0.00,,SKC,0.00,WeatherDisplay:10.37,2013-01-01 11:12:00,
2013-01-01 06:18:00,38.1,33.1,29.04,NW,315,1.1,0.0,82,0.00,,SKC,0.00,WeatherDisplay:10.37,2013-01-01 11:18:00,
2013-01-01 06:23:00,38.1,33.4,29.05,NW,315,0.0,0.0,83,0.00,,SKC,0.00,WeatherDisplay:10.37,2013-01-01 11:23:00,
2013-01-01 06:28:00,37.9,33.5,29.04,NW,315,1.1,0.0,84,0.00,,SKC,0.00,WeatherDisplay:10.37,2013-01-01 11:28:00,
2013-01-01 06:33:00,37.8,33.7,29.04,NW,315,1.1,0.0,85,0.00,,SKC,0.00,WeatherDisplay:10.37,2013-01-01 11:33:00,
2013-01-01 06:38:00,37.6,33.5,29.04,SW,225,1.1,0.0,85,0.00,,SKC,0.00,WeatherDisplay:10.37,2013-01-01 11:38:00,
2013-01-01 06:43:00,37.6,33.8,29.05,SE,135,0.0,0.0,86,0.00,,SKC,0.00,WeatherDisplay:10.37,2013-01-01 11:43:00,
2013-01-01 06:48:00,37.6,33.8,29.03,NW,315,1.1,0.0,86,0.00,,SKC,0.00,WeatherDisplay:10.37,2013-01-01 11:48:00,
2013-01-01 06:53:00,37.6,33.8,29.04,North,0,1.1,0.0,86,0.00,,SKC,0.00,WeatherDisplay:10.37,2013-01-01 11:53:00,
2013-01-01 06:58:00,37.8,34.2,29.04,North,0,1.1,0.0,87,0.00,,SKC,0.00,WeatherDisplay:10.37,2013-01-01 11:58:00,
2013-01-01 07:03:00,37.8,34.2,29.04,SW,225,0.0,0.0,87,0.00,,SKC,0.00,WeatherDisplay:10.37,2013-01-01 12:03:00,
2013-01-01 07:08:00,37.9,34.4,29.03,SW,225,0.0,0.0,87,0.00,,SKC,0.00,WeatherDisplay:10.37,2013-01-01 12:08:00,
2013-01-01 07:13:00,38.1,34.9,29.02,North,0,1.1,0.0,88,0.00,,SKC,0.00,WeatherDisplay:10.37,2013-01-01 12:13:00,
2013-01-01 07:18:00,38.3,35.1,29.03,North,0,0.0,0.0,88,0.00,,SKC,0.00,WeatherDisplay:10.37,2013-01-01 12:18:00,
2013-01-01 07:23:00,38.3,35.3,29.04,North,0,0.0,0.0,89,0.00,,SKC,0.00,WeatherDisplay:10.37,2013-01-01 12:23:00,
2013-01-01 07:28:00,38.3,35.3,29.04,North,0,0.0,0.0,89,0.00,,SKC,0.00,WeatherDisplay:10.37,2013-01-01 12:28:00,
2013-01-01 07:33:00,38.1,35.2,29.04,North,0,0.0,0.0,89,0.00,,SKC,0.00,WeatherDisplay:10.37,2013-01-01 12:33:00,
2013-01-01 07:38:00,38.1,35.4,29.04,South,180,1.1,0.0,90,0.00,,SKC,0.00,WeatherDisplay:10.37,2013-01-01 12:38:00,
2013-01-01 07:43:00,38.1,35.7,29.05,North,0,0.0,0.0,91,0.00,,SKC,0.00,WeatherDisplay:10.37,2013-01-01 12:43:00,
2013-01-01 07:48:00,38.1,35.7,29.05,North,0,1.1,0.0,91,0.00,,SKC,0.00,WeatherDisplay:10.37,2013-01-01 12:48:00,
2013-01-01 07:53:00,38.1,35.7,29.04,North,0,1.1,0.0,91,0.00,,SKC,0.00,WeatherDisplay:10.37,2013-01-01 12:53:00,
2013-01-01 07:58:00,38.1,35.7,29.05,NW,315,0.0,0.0,91,0.01,RA,SKC,0.01,WeatherDisplay:10.37,2013-01-01 12:58:00,
2013-01-01 08:03:00,38.1,35.7,29.05,North,0,0.0,0.0,91,0.01,RA,SKC,0.01,WeatherDisplay:10.37,2013-01-01 13:03:00,
2013-01-01 08:08:00,38.1,36.0,29.05,NW,315,1.1,0.0,92,0.01,,SKC,0.01,WeatherDisplay:10.37,2013-01-01 13:08:00,
2013-01-01 08:13:00,38.1,36.0,29.05,NW,315,1.1,0.0,92,0.01,,SKC,0.01,WeatherDisplay:10.37,2013-01-01 13:13:00,
2013-01-01 08:18:00,38.1,36.0,29.06,NE,45,1.1,0.0,92,0.01,,SKC,0.01,WeatherDisplay:10.37,2013-01-01 13:18:00,
2013-01-01 08:23:00,38.1,36.0,29.05,North,0,0.0,0.0,92,0.01,,SKC,0.01,WeatherDisplay:10.37,2013-01-01 13:23:00,
2013-01-01 08:28:00,38.1,36.0,29.05,South,180,1.1,0.0,92,0.01,,SKC,0.01,WeatherDisplay:10.37,2013-01-01 13:28:00,
2013-01-01 08:33:00,38.3,36.2,29.05,North,0,1.1,0.0,92,0.01,,SKC,0.01,WeatherDisplay:10.37,2013-01-01 13:33:00,
2013-01-01 08:38:00,38.3,36.5,29.05,North,0,1.1,0.0,93,0.01,,SKC,0.01,WeatherDisplay:10.37,2013-01-01 13:38:00,
2013-01-01 08:43:00,38.5,36.6,29.05,South,180,0.0,0.0,93,0.01,,SKC,0.01,WeatherDisplay:10.37,2013-01-01 13:43:00,
2013-01-01 08:48:00,38.5,36.6,29.06,West,270,1.1,0.0,93,0.01,,SKC,0.01,WeatherDisplay:10.37,2013-01-01 13:48:00,
2013-01-01 08:53:00,38.5,36.6,29.05,West,270,1.1,0.0,93,0.01,,SKC,0.01,WeatherDisplay:10.37,2013-01-01 13:53:00,
2013-01-01 08:58:00,38.5,36.6,29.05,NW,315,1.1,0.0,93,0.00,,SKC,0.01,WeatherDisplay:10.37,2013-01-01 13:58:00,
2013-01-01 09:03:00,38.5,36.6,29.05,NW,315,1.1,0.0,93,0.00,,SKC,0.01,WeatherDisplay:10.37,2013-01-01 14:03:00,
2013-01-01 09:08:00,38.7,36.8,29.05,North,0,1.1,0.0,93,0.00,,SKC,0.01,WeatherDisplay:10.37,2013-01-01 14:08:00,
2013-01-01 09:13:00,38.8,37.0,29.06,North,0,0.0,0.0,93,0.00,,SKC,0.01,WeatherDisplay:10.37,2013-01-01 14:13:00,
2013-01-01 09:18:00,38.8,37.0,29.06,North,0,1.1,0.0,93,0.00,,SKC,0.01,WeatherDisplay:10.37,2013-01-01 14:18:00,
2013-01-01 09:23:00,38.8,36.7,29.05,South,180,0.0,0.0,92,0.00,,SKC,0.01,WeatherDisplay:10.37,2013-01-01 14:23:00,
2013-01-01 09:28:00,39.0,37.2,29.04,West,270,1.1,0.0,93,0.00,,SKC,0.01,WeatherDisplay:10.37,2013-01-01 14:28:00,
2013-01-01 09:33:00,39.2,37.3,29.05,North,0,1.1,0.0,93,0.00,,SKC,0.01,WeatherDisplay:10.37,2013-01-01 14:33:00,
2013-01-01 09:38:00,39.4,37.5,29.05,North,0,0.0,0.0,93,0.00,,SKC,0.01,WeatherDisplay:10.37,2013-01-01 14:38:00,
2013-01-01 09:43:00,39.4,37.5,29.05,NW,315,1.1,0.0,93,0.00,,SKC,0.01,WeatherDisplay:10.37,2013-01-01 14:43:00,
2013-01-01 09:48:00,39.6,37.7,29.05,North,0,0.0,0.0,93,0.00,,SKC,0.01,WeatherDisplay:10.37,2013-01-01 14:48:00,
2013-01-01 09:53:00,39.7,37.9,29.05,NW,315,0.0,0.0,93,0.00,,SKC,0.01,WeatherDisplay:10.37,2013-01-01 14:53:00,
2013-01-01 09:58:00,39.9,38.1,29.05,West,270,1.1,0.0,93,0.00,,SKC,0.01,WeatherDisplay:10.37,2013-01-01 14:58:00,
2013-01-01 10:03:00,40.1,38.2,29.05,North,0,0.0,0.0,93,0.00,,SKC,0.01,WeatherDisplay:10.37,2013-01-01 15:03:00,
2013-01-01 10:08:00,40.5,38.3,29.04,SW,225,1.1,0.0,92,0.00,,SKC,0.01,WeatherDisplay:10.37,2013-01-01 15:08:00,
2013-01-01 10:13:00,40.8,38.4,29.05,South,180,0.0,0.0,91,0.00,,SKC,0.01,WeatherDisplay:10.37,2013-01-01 15:13:00,
2013-01-01 10:18:00,41.2,38.5,29.06,NW,315,1.1,0.0,90,0.00,,SKC,0.01,WeatherDisplay:10.37,2013-01-01 15:18:00,
2013-01-01 10:23:00,41.4,38.4,29.05,NW,315,1.1,0.0,89,0.00,,SKC,0.01,WeatherDisplay:10.37,2013-01-01 15:23:00,
2013-01-01 10:28:00,41.2,37.9,29.05,West,270,1.1,0.0,88,0.00,,SKC,0.01,WeatherDisplay:10.37,2013-01-01 15:28:00,
2013-01-01 10:33:00,41.2,37.6,29.05,West,270,1.1,0.0,87,0.00,,SKC,0.01,WeatherDisplay:10.37,2013-01-01 15:33:00,
2013-01-01 10:38:00,41.4,37.5,29.05,North,0,1.1,0.0,86,0.00,,SKC,0.01,WeatherDisplay:10.37,2013-01-01 15:38:00,
2013-01-01 10:43:00,41.4,37.2,29.04,North,0,1.1,0.0,85,0.00,,SKC,0.01,WeatherDisplay:10.37,2013-01-01 15:43:00,
2013-01-01 10:48:00,41.4,37.2,29.04,West,270,1.1,0.0,85,0.00,,SKC,0.01,WeatherDisplay:10.37,2013-01-01 15:48:00,
2013-01-01 10:53:00,41.4,37.2,29.05,SW,225,1.1,0.0,85,0.00,,SKC,0.01,WeatherDisplay:10.37,2013-01-01 15:53:00,
2013-01-01 10:59:00,41.4,37.2,29.05,SW,225,0.0,0.0,85,0.00,,SKC,0.01,WeatherDisplay:10.37,2013-01-01 15:59:00,
2013-01-01 11:03:00,41.4,37.5,29.05,SW,225,0.0,0.0,86,0.00,,SKC,0.01,WeatherDisplay:10.37,2013-01-01 16:03:00,
2013-01-01 11:08:00,41.5,37.4,29.04,NW,315,0.0,0.0,85,0.00,,SKC,0.01,WeatherDisplay:10.37,2013-01-01 16:08:00,
2013-01-01 11:13:00,41.4,37.2,29.03,SW,225,1.1,0.0,85,0.00,,SKC,0.01,WeatherDisplay:10.37,2013-01-01 16:13:00,
2013-01-01 11:18:00,41.4,37.2,29.02,West,270,1.1,0.0,85,0.00,,SKC,0.01,WeatherDisplay:10.37,2013-01-01 16:18:00,
2013-01-01 11:24:00,41.4,37.5,29.03,North,0,2.3,0.0,86,0.00,,SKC,0.01,WeatherDisplay:10.37,2013-01-01 16:24:00,
2013-01-01 11:29:00,41.4,37.8,29.03,North,0,1.1,0.0,87,0.00,,SKC,0.01,WeatherDisplay:10.37,2013-01-01 16:29:00,
2013-01-01 11:34:00,41.4,37.8,29.03,NW,315,0.0,0.0,87,0.00,,SKC,0.01,WeatherDisplay:10.37,2013-01-01 16:34:00,
2013-01-01 11:39:00,41.4,38.1,29.02,NW,315,0.0,0.0,88,0.00,,SKC,0.01,WeatherDisplay:10.37,2013-01-01 16:39:00,
2013-01-01 11:44:00,41.4,38.1,29.02,NW,315,1.1,0.0,88,0.00,,SKC,0.01,WeatherDisplay:10.37,2013-01-01 16:44:00,
2013-01-01 11:49:00,41.4,38.1,29.02,NW,315,1.1,0.0,88,0.00,,SKC,0.01,WeatherDisplay:10.37,2013-01-01 16:49:00,
2013-01-01 11:54:00,41.4,38.4,29.02,NW,315,1.1,0.0,89,0.01,RA,SKC,0.02,WeatherDisplay:10.37,2013-01-01 16:54:00,
2013-01-01 11:59:00,41.5,38.5,29.02,West,270,1.1,0.0,89,0.01,RA,SKC,0.02,WeatherDisplay:10.37,2013-01-01 16:59:00,
2013-01-01 12:04:00,41.7,38.7,29.02,South,180,0.0,0.0,89,0.01,,SKC,0.02,WeatherDisplay:10.37,2013-01-01 17:04:00,
2013-01-01 12:09:00,41.9,39.2,29.02,NW,315,0.0,0.0,90,0.01,,SKC,0.02,WeatherDisplay:10.37,2013-01-01 17:09:00,
2013-01-01 12:14:00,41.9,39.2,29.02,NW,315,1.1,0.0,90,0.01,,SKC,0.02,WeatherDisplay:10.37,2013-01-01 17:14:00,
2013-01-01 12:19:00,41.9,39.2,29.01,NW,315,0.0,0.0,90,0.02,RA,SKC,0.04,WeatherDisplay:10.37,2013-01-01 17:19:00,
2013-01-01 12:24:00,41.7,39.0,29.00,NW,315,1.1,0.0,90,0.02,RA,SKC,0.04,WeatherDisplay:10.37,2013-01-01 17:24:00,
2013-01-01 12:29:00,41.7,39.3,29.01,NW,315,1.1,0.0,91,0.02,,SKC,0.04,WeatherDisplay:10.37,2013-01-01 17:29:00,
2013-01-01 12:34:00,41.7,39.3,29.01,NW,315,1.1,0.0,91,0.04,RA,SKC,0.05,WeatherDisplay:10.37,2013-01-01 17:34:00,
2013-01-01 12:39:00,41.7,39.3,29.00,North,0,0.0,0.0,91,0.04,RA,SKC,0.05,WeatherDisplay:10.37,2013-01-01 17:39:00,
2013-01-01 12:44:00,41.7,39.6,29.00,North,0,1.1,0.0,92,0.04,,SKC,0.05,WeatherDisplay:10.37,2013-01-01 17:44:00,
2013-01-01 12:49:00,41.9,39.7,29.00,South,180,1.1,0.0,92,0.05,RA,SKC,0.06,WeatherDisplay:10.37,2013-01-01 17:49:00,
2013-01-01 12:54:00,41.9,40.0,29.00,NW,315,0.0,0.0,93,0.04,RA,SKC,0.06,WeatherDisplay:10.37,2013-01-01 17:54:00,
2013-01-01 12:59:00,41.9,40.0,28.99,NW,315,0.0,0.0,93,0.05,RA,SKC,0.07,WeatherDisplay:10.37,2013-01-01 17:59:00,
2013-01-01 13:04:00,42.1,40.2,28.98,NW,315,1.1,0.0,93,0.05,RA,SKC,0.07,WeatherDisplay:10.37,2013-01-01 18:04:00,
2013-01-01 13:09:00,42.1,40.2,28.98,North,0,1.1,0.0,93,0.06,RA,SKC,0.08,WeatherDisplay:10.37,2013-01-01 18:09:00,
2013-01-01 13:14:00,42.1,40.2,28.98,NW,315,1.1,0.0,93,0.06,RA,SKC,0.08,WeatherDisplay:10.37,2013-01-01 18:14:00,
2013-01-01 13:19:00,42.3,40.1,28.97,North,0,1.1,0.0,92,0.05,,SKC,0.08,WeatherDisplay:10.37,2013-01-01 18:19:00,
2013-01-01 13:24:00,42.4,40.6,28.96,NW,315,0.0,0.0,93,0.05,,SKC,0.09,WeatherDisplay:10.37,2013-01-01 18:24:00,
2013-01-01 13:29:00,42.6,40.7,28.96,North,0,0.0,0.0,93,0.06,RA,SKC,0.09,WeatherDisplay:10.37,2013-01-01 18:29:00,
2013-01-01 13:34:00,42.8,40.9,28.96,NW,315,0.0,0.0,93,0.05,RA,SKC,0.09,WeatherDisplay:10.37,2013-01-01 18:34:00,
2013-01-01 13:39:00,43.0,41.1,28.95,NW,315,0.0,0.0,93,0.05,,SKC,0.09,WeatherDisplay:10.37,2013-01-01 18:39:00,
2013-01-01 13:44:00,43.3,41.7,28.94,NW,315,0.0,0.0,94,0.05,,SKC,0.09,WeatherDisplay:10.37,2013-01-01 18:44:00,
2013-01-01 13:49:00,43.3,41.7,28.94,North,0,0.0,0.0,94,0.04,,SKC,0.09,WeatherDisplay:10.37,2013-01-01 18:49:00,
2013-01-01 13:54:00,43.5,41.9,28.95,North,0,0.0,0.0,94,0.04,,SKC,0.09,WeatherDisplay:10.37,2013-01-01 18:54:00,
2013-01-01 13:59:00,43.7,42.1,28.96,North,0,0.0,0.0,94,0.02,,SKC,0.09,WeatherDisplay:10.37,2013-01-01 18:59:00,
2013-01-01 14:04:00,43.7,42.4,28.96,North,0,1.1,0.0,95,0.02,,SKC,0.09,WeatherDisplay:10.37,2013-01-01 19:04:00,
2013-01-01 14:09:00,43.7,42.4,28.96,North,0,1.1,0.0,95,0.01,,SKC,0.09,WeatherDisplay:10.37,2013-01-01 19:09:00,
2013-01-01 14:14:00,43.7,42.4,28.95,NE,45,0.0,0.0,95,0.01,,SKC,0.09,WeatherDisplay:10.37,2013-01-01 19:14:00,
2013-01-01 14:19:00,43.7,42.4,28.95,South,180,0.0,0.0,95,0.01,,SKC,0.09,WeatherDisplay:10.37,2013-01-01 19:19:00,
2013-01-01 14:24:00,43.7,42.4,28.95,South,180,1.1,0.0,95,0.01,,SKC,0.09,WeatherDisplay:10.37,2013-01-01 19:24:00,
2013-01-01 14:29:00,43.9,42.5,28.95,NW,315,1.1,0.0,95,0.00,,SKC,0.09,WeatherDisplay:10.37,2013-01-01 19:29:00,
2013-01-01 14:34:00,43.7,42.4,28.95,South,180,1.1,0.0,95,0.00,,SKC,0.09,WeatherDisplay:10.37,2013-01-01 19:34:00,
2013-01-01 14:39:00,43.7,42.4,28.95,NW,315,1.1,0.0,95,0.00,,SKC,0.09,WeatherDisplay:10.37,2013-01-01 19:39:00,
2013-01-01 14:44:00,43.9,42.5,28.95,NW,315,1.1,0.0,95,0.00,,SKC,0.09,WeatherDisplay:10.37,2013-01-01 19:44:00,
2013-01-01 14:49:00,44.1,42.4,28.95,NW,315,0.0,0.0,94,0.00,,SKC,0.09,WeatherDisplay:10.37,2013-01-01 19:49:00,
2013-01-01 14:54:00,44.1,42.4,28.94,NW,315,0.0,0.0,94,0.00,,SKC,0.09,WeatherDisplay:10.37,2013-01-01 19:54:00,
2013-01-01 14:59:00,44.1,42.4,28.94,NW,315,1.1,0.0,94,0.00,,SKC,0.09,WeatherDisplay:10.37,2013-01-01 19:59:00,
2013-01-01 15:04:00,44.2,42.9,28.94,West,270,1.1,0.0,95,0.00,,SKC,0.09,WeatherDisplay:10.37,2013-01-01 20:04:00,
2013-01-01 15:09:00,44.6,43.3,28.94,South,180,1.1,0.0,95,0.00,,SKC,0.09,WeatherDisplay:10.37,2013-01-01 20:09:00,
2013-01-01 15:14:00,45.0,43.6,28.94,South,180,0.0,0.0,95,0.00,,SKC,0.09,WeatherDisplay:10.37,2013-01-01 20:14:00,
2013-01-01 15:19:00,45.1,43.8,28.93,SW,225,0.0,0.0,95,0.00,,SKC,0.09,WeatherDisplay:10.37,2013-01-01 20:19:00,
2013-01-01 15:24:00,45.3,44.0,28.93,West,270,1.1,0.0,95,0.00,,SKC,0.09,WeatherDisplay:10.37,2013-01-01 20:24:00,
2013-01-01 15:29:00,45.5,44.2,28.94,SW,225,0.0,0.0,95,0.00,,SKC,0.09,WeatherDisplay:10.37,2013-01-01 20:29:00,
2013-01-01 15:34:00,45.5,44.2,28.94,North,0,0.0,0.0,95,0.00,,SKC,0.09,WeatherDisplay:10.37,2013-01-01 20:34:00,
2013-01-01 15:39:00,45.7,44.3,28.94,NW,315,1.1,0.0,95,0.00,,SKC,0.09,WeatherDisplay:10.37,2013-01-01 20:39:00,
2013-01-01 15:44:00,45.5,44.2,28.94,NW,315,0.7,0.0,95,0.00,,SKC,0.09,WeatherDisplay:10.37,2013-01-01 20:44:00,
2013-01-01 15:49:00,45.5,44.2,28.94,NW,315,0.0,0.0,95,0.00,,SKC,0.09,WeatherDisplay:10.37,2013-01-01 20:49:00,
2013-01-01 15:54:00,45.5,44.2,28.94,NW,315,1.1,0.0,95,0.00,,SKC,0.09,WeatherDisplay:10.37,2013-01-01 20:54:00,
2013-01-01 15:59:00,45.7,44.3,28.94,NW,315,1.1,0.0,95,0.00,,SKC,0.09,WeatherDisplay:10.37,2013-01-01 20:59:00,
2013-01-01 16:04:00,45.7,44.3,28.94,SW,225,1.1,0.0,95,0.00,,SKC,0.09,WeatherDisplay:10.37,2013-01-01 21:04:00,
2013-01-01 16:09:00,45.5,44.2,28.94,NW,315,0.0,0.0,95,0.00,,SKC,0.09,WeatherDisplay:10.37,2013-01-01 21:09:00,
2013-01-01 16:14:00,45.5,44.2,28.94,NW,315,1.1,0.0,95,0.00,,SKC,0.09,WeatherDisplay:10.37,2013-01-01 21:14:00,
2013-01-01 16:19:00,45.5,44.2,28.95,NW,315,1.1,0.0,95,0.00,,SKC,0.09,WeatherDisplay:10.37,2013-01-01 21:19:00,
2013-01-01 16:24:00,45.5,44.2,28.96,NW,315,0.0,0.0,95,0.00,,SKC,0.09,WeatherDisplay:10.37,2013-01-01 21:24:00,
2013-01-01 16:29:00,45.5,44.2,28.95,North,0,0.0,0.0,95,0.00,,SKC,0.09,WeatherDisplay:10.37,2013-01-01 21:29:00,
2013-01-01 16:34:00,45.3,44.0,28.95,North,0,0.0,0.0,95,0.01,RA,SKC,0.11,WeatherDisplay:10.37,2013-01-01 21:34:00,
2013-01-01 16:39:00,45.3,44.0,28.96,West,270,0.0,0.0,95,0.01,RA,SKC,0.11,WeatherDisplay:10.37,2013-01-01 21:39:00,
2013-01-01 16:45:00,45.5,44.2,28.95,NE,45,1.1,0.0,95,0.01,,SKC,0.11,WeatherDisplay:10.37,2013-01-01 21:45:00,
2013-01-01 16:50:00,45.5,44.2,28.96,SW,225,0.0,0.0,95,0.02,RA,SKC,0.12,WeatherDisplay:10.37,2013-01-01 21:50:00,
2013-01-01 16:55:00,45.5,44.2,28.95,North,0,1.1,0.0,95,0.02,RA,SKC,0.12,WeatherDisplay:10.37,2013-01-01 21:55:00,
2013-01-01 17:00:00,45.3,44.0,28.96,NW,315,0.0,0.0,95,0.02,,SKC,0.12,WeatherDisplay:10.37,2013-01-01 22:00:00,
2013-01-01 17:05:00,45.5,44.2,28.96,NW,315,0.0,0.0,95,0.04,RA,SKC,0.13,WeatherDisplay:10.37,2013-01-01 22:05:00,
2013-01-01 17:10:00,45.5,44.2,28.95,West,270,0.0,0.0,95,0.04,RA,SKC,0.13,WeatherDisplay:10.37,2013-01-01 22:10:00,
2013-01-01 17:15:00,45.3,44.0,28.96,NW,315,1.1,0.0,95,0.04,,SKC,0.13,WeatherDisplay:10.37,2013-01-01 22:15:00,
2013-01-01 17:20:00,45.3,44.0,28.96,NW,315,1.1,0.0,95,0.04,,SKC,0.13,WeatherDisplay:10.37,2013-01-01 22:20:00,
2013-01-01 17:25:00,45.3,44.2,28.96,North,0,0.0,0.0,96,0.04,,SKC,0.13,WeatherDisplay:10.37,2013-01-01 22:25:00,
2013-01-01 17:30:00,45.3,44.2,28.95,NW,315,1.1,0.0,96,0.04,,SKC,0.13,WeatherDisplay:10.37,2013-01-01 22:30:00,
2013-01-01 17:35:00,45.3,44.2,28.95,NW,315,0.0,0.0,96,0.02,,SKC,0.13,WeatherDisplay:10.37,2013-01-01 22:35:00,
2013-01-01 17:40:00,45.1,44.1,28.95,NW,315,0.0,0.0,96,0.02,,SKC,0.13,WeatherDisplay:10.37,2013-01-01 22:40:00,
2013-01-01 17:45:00,45.1,44.1,28.95,NW,315,0.0,0.0,96,0.04,RA,SKC,0.14,WeatherDisplay:10.37,2013-01-01 22:45:00,
2013-01-01 17:50:00,45.1,44.1,28.95,NW,315,0.0,0.0,96,0.02,RA,SKC,0.14,WeatherDisplay:10.37,2013-01-01 22:50:00,
2013-01-01 17:55:00,45.1,44.1,28.95,NW,315,1.1,0.0,96,0.02,,SKC,0.14,WeatherDisplay:10.37,2013-01-01 22:55:00,
2013-01-01 18:00:00,45.1,44.1,28.95,NW,315,0.0,0.0,96,0.02,,SKC,0.14,WeatherDisplay:10.37,2013-01-01 23:00:00,
2013-01-01 18:05:00,45.1,44.1,28.95,North,0,1.1,0.0,96,0.01,,SKC,0.14,WeatherDisplay:10.37,2013-01-01 23:05:00,
2013-01-01 18:10:00,45.1,44.1,28.95,West,270,0.0,0.0,96,0.01,,SKC,0.14,WeatherDisplay:10.37,2013-01-01 23:10:00,
2013-01-01 18:15:00,45.1,44.1,28.95,NW,315,0.0,0.0,96,0.01,,SKC,0.14,WeatherDisplay:10.37,2013-01-01 23:15:00,
2013-01-01 18:20:00,45.1,44.1,28.95,NW,315,1.1,0.0,96,0.01,,SKC,0.14,WeatherDisplay:10.37,2013-01-01 23:20:00,
2013-01-01 18:25:00,45.0,43.9,28.95,NW,315,0.0,0.0,96,0.01,,SKC,0.14,WeatherDisplay:10.37,2013-01-01 23:25:00,
2013-01-01 18:30:00,45.0,43.9,28.95,NW,315,0.0,0.0,96,0.02,RA,SKC,0.15,WeatherDisplay:10.37,2013-01-01 23:30:00,
2013-01-01 18:35:00,45.1,44.1,28.95,NW,315,0.0,0.0,96,0.02,RA,SKC,0.15,WeatherDisplay:10.37,2013-01-01 23:35:00,
2013-01-01 18:40:00,45.1,44.1,28.96,North,0,0.0,0.0,96,0.02,,SKC,0.15,WeatherDisplay:10.37,2013-01-01 23:40:00,
2013-01-01 18:45:00,45.1,44.1,28.96,North,0,0.0,0.0,96,0.01,,SKC,0.15,WeatherDisplay:10.37,2013-01-01 23:45:00,
2013-01-01 18:50:00,45.1,44.1,28.96,North,0,0.0,0.0,96,0.01,,SKC,0.15,WeatherDisplay:10.37,2013-01-01 23:50:00,
2013-01-01 18:55:00,45.1,44.1,28.96,NW,315,0.0,0.0,96,0.01,,SKC,0.15,WeatherDisplay:10.37,2013-01-01 23:55:00,
2013-01-01 19:00:00,45.0,43.9,28.95,NW,315,1.1,0.0,96,0.01,,SKC,0.15,WeatherDisplay:10.37,2013-01-02 00:00:00,
2013-01-01 19:05:00,45.0,43.9,28.96,NW,315,1.1,0.0,96,0.01,,SKC,0.15,WeatherDisplay:10.37,2013-01-02 00:05:00,
2013-01-01 19:10:00,45.0,43.9,28.95,NW,315,1.1,0.0,96,0.01,,SKC,0.15,WeatherDisplay:10.37,2013-01-02 00:10:00,
2013-01-01 19:15:00,45.0,43.9,28.96,North,0,1.1,0.0,96,0.01,,SKC,0.15,WeatherDisplay:10.37,2013-01-02 00:15:00,
2013-01-01 19:20:00,45.0,43.9,28.96,NW,315,1.1,0.0,96,0.01,,SKC,0.15,WeatherDisplay:10.37,2013-01-02 00:20:00,
2013-01-01 19:25:00,45.0,43.9,28.96,South,180,0.0,0.0,96,0.02,RA,SKC,0.17,WeatherDisplay:10.37,2013-01-02 00:25:00,
2013-01-01 19:30:00,45.0,43.9,28.96,South,180,0.0,0.0,96,0.01,RA,SKC,0.17,WeatherDisplay:10.37,2013-01-02 00:30:00,
2013-01-01 19:35:00,45.0,43.9,28.96,NW,315,0.0,0.0,96,0.01,,SKC,0.17,WeatherDisplay:10.37,2013-01-02 00:35:00,
2013-01-01 19:40:00,45.0,43.9,28.96,SW,225,1.1,0.0,96,0.01,,SKC,0.17,WeatherDisplay:10.37,2013-01-02 00:40:00,
2013-01-01 19:45:00,44.8,43.7,28.97,NW,315,0.0,0.0,96,0.01,,SKC,0.17,WeatherDisplay:10.37,2013-01-02 00:45:00,
2013-01-01 19:50:00,45.0,44.2,28.97,North,0,0.0,0.0,97,0.01,,SKC,0.17,WeatherDisplay:10.37,2013-01-02 00:50:00,
2013-01-01 19:55:00,45.0,44.2,28.97,North,0,0.0,0.0,97,0.02,RA,SKC,0.18,WeatherDisplay:10.37,2013-01-02 00:55:00,
2013-01-01 20:00:00,45.0,44.2,28.97,North,0,0.0,0.0,97,0.02,RA,SKC,0.18,WeatherDisplay:10.37,2013-01-02 01:00:00,
2013-01-01 20:05:00,44.8,44.0,28.97,NW,315,0.0,0.0,97,0.02,,SKC,0.18,WeatherDisplay:10.37,2013-01-02 01:05:00,
2013-01-01 20:10:00,45.0,44.2,28.97,NW,315,0.0,0.0,97,0.02,,SKC,0.18,WeatherDisplay:10.37,2013-01-02 01:10:00,
2013-01-01 20:15:00,45.0,44.2,28.97,NW,315,1.1,0.0,97,0.02,,SKC,0.18,WeatherDisplay:10.37,2013-01-02 01:15:00,
2013-01-01 20:20:00,44.8,44.0,28.96,NW,315,1.1,0.0,97,0.02,,SKC,0.18,WeatherDisplay:10.37,2013-01-02 01:20:00,
2013-01-01 20:25:00,44.6,43.8,28.96,North,0,0.0,0.0,97,0.01,,SKC,0.18,WeatherDisplay:10.37,2013-01-02 01:25:00,
2013-01-01 20:30:00,44.7,43.9,28.97,North,353,0.0,1.0,97,0.00,,SKC,0.18,WeatherDisplay:10.37,2013-01-02 01:30:00,
2013-01-01 20:35:00,45.0,44.2,28.97,North,0,0.0,0.0,97,0.01,,SKC,0.18,WeatherDisplay:10.37,2013-01-02 01:35:00,
2013-01-01 20:40:00,45.0,44.2,28.97,North,0,0.0,0.0,97,0.00,,SKC,0.18,WeatherDisplay:10.37,2013-01-02 01:40:00,
2013-01-01 20:45:00,45.1,44.3,28.96,North,0,0.0,0.0,97,0.01,,SKC,0.18,WeatherDisplay:10.37,2013-01-02 01:45:00,
2013-01-01 20:50:00,45.1,44.3,28.96,North,0,0.0,1.0,97,0.00,,SKC,0.18,WeatherDisplay:10.37,2013-01-02 01:50:00,
2013-01-01 20:55:00,45.1,44.3,28.95,South,180,1.1,0.0,97,0.00,,SKC,0.18,WeatherDisplay:10.37,2013-01-02 01:55:00,
2013-01-01 21:00:00,45.0,44.2,28.96,NW,315,1.1,0.0,97,0.00,,SKC,0.18,WeatherDisplay:10.37,2013-01-02 02:00:00,
2013-01-01 21:05:00,45.0,44.2,28.96,NW,315,1.1,0.0,97,0.00,,SKC,0.18,WeatherDisplay:10.37,2013-01-02 02:05:00,
2013-01-01 21:10:00,44.8,44.0,28.96,SE,135,1.1,0.0,97,0.00,,SKC,0.18,WeatherDisplay:10.37,2013-01-02 02:10:00,
2013-01-01 21:15:00,45.0,44.2,28.96,NW,315,1.1,0.0,97,0.00,,SKC,0.18,WeatherDisplay:10.37,2013-01-02 02:15:00,
2013-01-01 21:20:00,44.8,44.0,28.95,North,0,0.0,0.0,97,0.00,,SKC,0.18,WeatherDisplay:10.37,2013-01-02 02:20:00,
2013-01-01 21:25:00,44.8,44.0,28.96,North,0,0.0,0.0,97,0.00,,SKC,0.18,WeatherDisplay:10.37,2013-01-02 02:25:00,
2013-01-01 21:30:00,45.0,44.2,28.96,North,0,0.0,0.0,97,0.01,RA,SKC,0.19,WeatherDisplay:10.37,2013-01-02 02:30:00,
2013-01-01 21:35:00,45.0,44.2,28.96,NW,315,1.1,0.0,97,0.01,RA,SKC,0.19,WeatherDisplay:10.37,2013-01-02 02:35:00,
2013-01-01 21:40:00,45.0,44.2,28.97,NW,315,1.1,0.0,97,0.01,,SKC,0.19,WeatherDisplay:10.37,2013-01-02 02:40:00,
2013-01-01 21:45:00,44.8,44.0,28.97,NW,315,1.1,0.0,97,0.01,,SKC,0.19,WeatherDisplay:10.37,2013-01-02 02:45:00,
2013-01-01 21:50:00,44.8,44.0,28.97,NW,315,0.0,0.0,97,0.01,,SKC,0.19,WeatherDisplay:10.37,2013-01-02 02:50:00,
2013-01-01 21:55:00,44.8,44.0,28.97,NW,315,0.0,0.0,97,0.01,,SKC,0.19,WeatherDisplay:10.37,2013-01-02 02:55:00,
2013-01-01 22:00:00,44.8,44.0,28.98,NW,315,1.1,0.0,97,0.02,RA,SKC,0.20,WeatherDisplay:10.37,2013-01-02 03:00:00,
2013-01-01 22:05:00,44.8,44.0,28.98,NW,315,1.1,0.0,97,0.02,RA,SKC,0.20,WeatherDisplay:10.37,2013-01-02 03:05:00,
2013-01-01 22:10:00,44.8,44.0,28.98,NW,315,1.1,0.0,97,0.02,,SKC,0.20,WeatherDisplay:10.37,2013-01-02 03:10:00,
2013-01-01 22:16:00,44.8,44.0,28.97,South,180,1.1,0.0,97,0.02,,SKC,0.20,WeatherDisplay:10.37,2013-01-02 03:16:00,
2013-01-01 22:21:00,44.6,43.8,28.96,NW,315,0.0,0.0,97,0.04,RA,SKC,0.21,WeatherDisplay:10.37,2013-01-02 03:21:00,
2013-01-01 22:26:00,44.4,43.6,28.96,North,0,0.0,0.0,97,0.04,RA,SKC,0.21,WeatherDisplay:10.37,2013-01-02 03:26:00,
2013-01-01 22:31:00,44.6,43.8,28.95,North,0,0.0,0.0,97,0.02,,SKC,0.21,WeatherDisplay:10.37,2013-01-02 03:31:00,
2013-01-01 22:36:00,44.8,44.0,28.97,North,0,1.1,0.0,97,0.02,,SKC,0.21,WeatherDisplay:10.37,2013-01-02 03:36:00,
2013-01-01 22:41:00,44.8,44.0,28.96,North,0,0.0,0.0,97,0.02,,SKC,0.21,WeatherDisplay:10.37,2013-01-02 03:41:00,
2013-01-01 22:46:00,44.8,44.0,28.96,North,0,0.0,0.0,97,0.02,,SKC,0.21,WeatherDisplay:10.37,2013-01-02 03:46:00,
2013-01-01 22:51:00,44.8,44.0,28.95,South,180,0.0,0.0,97,0.02,,SKC,0.21,WeatherDisplay:10.37,2013-01-02 03:51:00,
2013-01-01 22:56:00,44.6,43.8,28.95,NW,315,0.0,0.0,97,0.02,,SKC,0.21,WeatherDisplay:10.37,2013-01-02 03:56:00,
2013-01-01 23:01:00,44.6,43.8,28.96,NW,315,1.1,0.0,97,0.01,,SKC,0.21,WeatherDisplay:10.37,2013-01-02 04:01:00,
2013-01-01 23:06:00,44.6,43.8,28.96,NW,315,1.1,0.0,97,0.01,,SKC,0.21,WeatherDisplay:10.37,2013-01-02 04:06:00,
2013-01-01 23:11:00,44.6,43.8,28.95,North,0,1.1,0.0,97,0.01,,SKC,0.21,WeatherDisplay:10.37,2013-01-02 04:11:00,
2013-01-01 23:16:00,44.6,43.8,28.95,NW,315,0.0,0.0,97,0.01,,SKC,0.21,WeatherDisplay:10.37,2013-01-02 04:16:00,
2013-01-01 23:21:00,44.4,43.6,28.94,NW,315,0.0,0.0,97,0.00,,SKC,0.21,WeatherDisplay:10.37,2013-01-02 04:21:00,
2013-01-01 23:26:00,44.4,43.6,28.95,NW,315,1.1,0.0,97,0.00,,SKC,0.21,WeatherDisplay:10.37,2013-01-02 04:26:00,
2013-01-01 23:31:00,44.4,43.6,28.94,NW,315,1.1,0.0,97,0.00,,SKC,0.21,WeatherDisplay:10.37,2013-01-02 04:31:00,
2013-01-01 23:36:00,44.4,43.6,28.95,NW,315,1.1,0.0,97,0.00,,SKC,0.21,WeatherDisplay:10.37,2013-01-02 04:36:00,
2013-01-01 23:41:00,44.4,43.6,28.95,NW,315,1.1,0.0,97,0.00,,SKC,0.21,WeatherDisplay:10.37,2013-01-02 04:41:00,
2013-01-01 23:46:00,44.4,43.6,28.94,NW,315,0.0,0.0,97,0.00,,SKC,0.21,WeatherDisplay:10.37,2013-01-02 04:46:00,
2013-01-01 23:51:00,44.4,43.6,28.95,North,0,0.0,0.0,97,0.00,,SKC,0.21,WeatherDisplay:10.37,2013-01-02 04:51:00,
2013-01-01 23:56:00,44.6,43.8,28.94,South,180,1.1,0.0,97,0.00,,SKC,0.21,WeatherDisplay:10.37,2013-01-02 04:56:00,